createdAt,value
2023-04-08T00:02:06.773Z,5.27
2023-04-08T00:04:36.448Z,5.29
2023-04-08T00:07:06.080Z,5.24
2023-04-08T00:09:35.857Z,5.31
2023-04-08T00:12:08.339Z,5.26
2023-04-08T00:14:38.596Z,5.14
2023-04-08T00:17:08.159Z,5.25
2023-04-08T00:19:37.713Z,5.37
2023-04-08T00:22:07.251Z,5.42
2023-04-08T00:24:36.897Z,5.49
2023-04-08T00:27:09.105Z,5.51
2023-04-08T00:29:38.666Z,5.50
2023-04-08T00:32:08.154Z,5.33
2023-04-08T00:34:38.638Z,5.40
2023-04-08T00:37:08.152Z,5.50
2023-04-08T00:39:37.745Z,5.24
2023-04-08T00:42:09.930Z,5.31
2023-04-08T00:44:39.503Z,5.18
2023-04-08T00:47:09.176Z,5.16
2023-04-08T00:49:38.748Z,5.27
2023-04-08T00:52:08.613Z,5.23
2023-04-08T00:54:39.548Z,5.30
2023-04-08T00:57:11.626Z,5.27
2023-04-08T00:59:41.233Z,5.25
2023-04-08T01:02:17.764Z,5.26
2023-04-08T01:04:53.454Z,5.19
2023-04-08T01:07:26.206Z,5.18
2023-04-08T01:09:58.262Z,5.21
2023-04-08T01:12:32.735Z,5.03
2023-04-08T01:15:06.454Z,5.21
2023-04-08T01:17:37.279Z,5.19
2023-04-08T01:20:08.567Z,5.09
2023-04-08T01:22:47.001Z,5.14
2023-04-08T01:25:20.580Z,5.11
2023-04-08T01:27:52.818Z,5.11
2023-04-08T01:30:23.439Z,5.05
2023-04-08T01:32:53.490Z,5.13
2023-04-08T01:35:23.456Z,5.13
2023-04-08T01:37:54.493Z,5.07
2023-04-08T01:40:24.170Z,5.07
2023-04-08T01:42:58.166Z,5.09
2023-04-08T01:45:28.203Z,5.00
2023-04-08T01:47:58.336Z,4.88
2023-04-08T01:50:28.328Z,4.95
2023-04-08T01:52:58.014Z,5.18
2023-04-08T01:55:28.056Z,5.27
2023-04-08T01:58:02.914Z,5.17
2023-04-08T02:00:33.341Z,5.19
2023-04-08T02:03:03.680Z,5.27
2023-04-08T02:05:33.326Z,5.10
2023-04-08T02:08:02.861Z,5.00
2023-04-08T02:10:32.415Z,5.13
2023-04-08T02:13:05.627Z,5.20
2023-04-08T02:15:37.940Z,5.27
2023-04-08T02:18:14.314Z,5.36
2023-04-08T02:20:46.850Z,5.24
2023-04-08T02:23:17.708Z,5.08
2023-04-08T02:25:48.294Z,5.02
2023-04-08T02:28:21.901Z,5.05
2023-04-08T02:30:53.957Z,5.10
2023-04-08T02:33:25.486Z,5.16
2023-04-08T02:35:56.190Z,5.16
2023-04-08T02:38:30.051Z,5.03
2023-04-08T02:40:59.909Z,5.16
2023-04-08T02:43:32.698Z,5.26
2023-04-08T02:46:04.108Z,5.27
2023-04-08T02:48:34.039Z,5.35
2023-04-08T02:51:03.678Z,5.49
2023-04-08T02:53:33.163Z,5.40
2023-04-08T02:56:02.637Z,4.97
2023-04-08T02:58:34.770Z,5.10
2023-04-08T03:01:04.296Z,6.13
2023-04-08T03:03:33.929Z,6.06
2023-04-08T03:06:03.434Z,5.43
2023-04-08T03:08:33.891Z,5.35
2023-04-08T03:11:03.410Z,5.60
2023-04-08T03:13:35.708Z,5.60
2023-04-08T03:16:05.201Z,5.38
2023-04-08T03:18:34.714Z,5.45
2023-04-08T03:21:04.378Z,5.73
2023-04-08T03:23:33.868Z,5.62
2023-04-08T03:26:03.478Z,5.55
2023-04-08T03:28:35.782Z,5.62
2023-04-08T03:31:06.509Z,5.22
2023-04-08T03:33:36.008Z,5.11
2023-04-08T03:36:05.752Z,4.95
2023-04-08T03:38:35.467Z,4.99
2023-04-08T03:41:05.007Z,4.92
2023-04-08T03:43:38.117Z,4.90
2023-04-08T03:46:07.834Z,4.95
2023-04-08T03:48:37.335Z,4.84
2023-04-08T03:51:06.833Z,4.78
2023-04-08T03:53:36.338Z,4.79
2023-04-08T03:56:05.894Z,4.81
2023-04-08T03:58:37.966Z,4.67
2023-04-08T04:01:07.980Z,4.55
2023-04-08T04:03:37.618Z,4.54
2023-04-08T04:06:07.219Z,4.53
2023-04-08T04:08:36.719Z,4.48
2023-04-08T04:11:06.279Z,4.42
2023-04-08T04:13:38.375Z,4.50
2023-04-08T04:16:08.547Z,4.66
2023-04-08T04:18:38.174Z,4.79
2023-04-08T04:21:09.196Z,4.76
2023-04-08T04:23:38.761Z,4.49
2023-04-08T04:26:11.395Z,4.51
2023-04-08T04:28:43.541Z,4.45
2023-04-08T04:31:21.588Z,4.43
2023-04-08T04:33:51.735Z,4.46
2023-04-08T04:36:21.586Z,4.61
2023-04-08T04:38:52.801Z,4.58
2023-04-08T04:41:22.559Z,4.53
2023-04-08T04:43:54.688Z,4.39
2023-04-08T04:46:24.278Z,4.47
2023-04-08T04:48:53.852Z,4.57
2023-04-08T04:51:23.355Z,4.56
2023-04-08T04:53:52.916Z,4.55
2023-04-08T04:56:22.405Z,4.50
2023-04-08T04:58:54.517Z,4.49
2023-04-08T05:01:24.031Z,4.40
2023-04-08T05:03:53.527Z,4.34
2023-04-08T05:06:23.057Z,4.42
2023-04-08T05:08:52.704Z,4.55
2023-04-08T05:11:22.200Z,4.55
2023-04-08T05:13:54.296Z,4.52
2023-04-08T05:16:23.903Z,4.55
2023-04-08T05:18:53.642Z,4.46
2023-04-08T05:21:23.864Z,4.36
2023-04-08T05:23:54.061Z,4.39
2023-04-08T05:26:24.483Z,4.23
2023-04-08T05:28:56.536Z,4.15
2023-04-08T05:31:26.039Z,4.20
2023-04-08T05:33:55.585Z,4.31
2023-04-08T05:36:25.141Z,4.41
2023-04-08T05:38:54.687Z,4.50
2023-04-08T05:41:24.223Z,4.38
2023-04-08T05:43:56.329Z,4.43
2023-04-08T05:46:25.864Z,4.48
2023-04-08T05:48:55.345Z,4.54
2023-04-08T05:51:24.835Z,4.51
2023-04-08T05:53:54.545Z,4.59
2023-04-08T05:56:24.043Z,4.84
2023-04-08T05:58:56.229Z,4.75
2023-04-08T06:01:25.928Z,4.74
2023-04-08T06:03:58.760Z,4.76
2023-04-08T06:06:28.646Z,4.65
2023-04-08T06:08:58.211Z,4.53
2023-04-08T06:11:27.827Z,4.42
2023-04-08T06:13:59.909Z,4.41
2023-04-08T06:16:29.506Z,4.58
2023-04-08T06:18:59.133Z,4.39
2023-04-08T06:21:28.643Z,4.45
2023-04-08T06:23:58.133Z,4.36
2023-04-08T06:26:27.956Z,4.58
2023-04-08T06:29:00.764Z,4.54
2023-04-08T06:31:30.539Z,4.44
2023-04-08T06:34:00.335Z,4.34
2023-04-08T06:36:29.940Z,4.42
2023-04-08T06:38:59.430Z,4.41
2023-04-08T06:41:28.984Z,4.48
2023-04-08T06:44:02.541Z,4.57
2023-04-08T06:46:32.011Z,4.63
2023-04-08T06:49:01.511Z,4.59
2023-04-08T06:51:31.617Z,4.54
2023-04-08T06:54:01.462Z,4.56
2023-04-08T06:56:30.988Z,4.61
2023-04-08T06:59:03.615Z,4.76
2023-04-08T07:01:34.704Z,4.86
2023-04-08T07:04:04.611Z,4.81
2023-04-08T07:06:34.222Z,4.91
2023-04-08T07:09:04.853Z,4.88
2023-04-08T07:11:34.627Z,4.71
2023-04-08T07:14:06.907Z,4.61
2023-04-08T07:16:36.471Z,4.61
2023-04-08T07:19:06.151Z,4.62
2023-04-08T07:21:35.709Z,5.40
2023-04-08T07:24:05.212Z,5.54
2023-04-08T07:26:34.720Z,5.66
2023-04-08T07:29:06.980Z,6.08
2023-04-08T07:31:36.487Z,6.50
2023-04-08T07:34:06.062Z,6.37
2023-04-08T07:36:35.887Z,6.65
2023-04-08T07:39:05.540Z,6.74
2023-04-08T07:41:35.026Z,6.46
2023-04-08T07:44:08.002Z,5.79
2023-04-08T07:46:41.090Z,5.34
2023-04-08T07:49:10.761Z,5.07
2023-04-08T07:51:40.576Z,4.94
2023-04-08T07:54:10.656Z,4.89
2023-04-08T07:56:40.690Z,4.94
2023-04-08T07:59:13.108Z,4.88
2023-04-08T08:01:43.111Z,5.04
2023-04-08T08:04:13.896Z,4.83
2023-04-08T08:06:43.582Z,4.81
2023-04-08T08:09:13.113Z,4.85
2023-04-08T08:11:42.630Z,4.85
2023-04-08T08:14:14.745Z,4.82
2023-04-08T08:16:44.805Z,4.78
2023-04-08T08:19:14.692Z,4.84
2023-04-08T08:21:44.348Z,4.91
2023-04-08T08:24:13.814Z,4.90
2023-04-08T08:26:45.215Z,4.82
2023-04-08T08:29:17.297Z,4.91
2023-04-08T08:31:48.628Z,4.90
2023-04-08T08:34:18.227Z,4.96
2023-04-08T08:36:50.498Z,4.90
2023-04-08T08:39:22.593Z,4.99
2023-04-08T08:41:52.072Z,5.09
2023-04-08T08:44:24.238Z,5.21
2023-04-08T08:46:53.838Z,5.09
2023-04-08T08:49:26.749Z,5.02
2023-04-08T08:51:57.840Z,5.10
2023-04-08T08:54:27.373Z,5.12
2023-04-08T08:56:56.932Z,5.01
2023-04-08T08:59:29.158Z,5.06
2023-04-08T09:01:58.777Z,5.16
2023-04-08T09:04:28.760Z,5.23
2023-04-08T09:07:13.936Z,5.25
2023-04-08T09:09:51.951Z,5.42
2023-04-08T09:12:21.802Z,5.57
2023-04-08T09:14:54.413Z,5.50
2023-04-08T09:17:35.273Z,5.65
2023-04-08T09:20:11.876Z,5.73
2023-04-08T09:22:59.974Z,5.70
2023-04-08T09:25:30.818Z,5.79
2023-04-08T09:28:00.373Z,5.77
2023-04-08T09:30:34.094Z,5.71
2023-04-08T09:33:07.454Z,5.84
2023-04-08T09:35:37.064Z,5.86
2023-04-08T09:38:07.086Z,5.83
2023-04-08T09:40:38.002Z,5.86
2023-04-08T09:43:08.319Z,5.92
2023-04-08T09:45:43.756Z,5.92
2023-04-08T09:48:16.618Z,5.89
2023-04-08T09:50:48.155Z,5.81
2023-04-08T09:53:23.355Z,5.83
2023-04-08T09:55:54.140Z,5.73
2023-04-08T09:58:36.590Z,5.78
2023-04-08T10:01:10.464Z,5.87
2023-04-08T10:03:43.402Z,5.82
2023-04-08T10:06:13.492Z,5.67
2023-04-08T10:08:46.919Z,5.61
2023-04-08T10:11:19.944Z,5.78
2023-04-08T10:13:49.689Z,5.87
2023-04-08T10:16:27.758Z,5.76
2023-04-08T10:18:58.677Z,5.78
2023-04-08T10:21:38.085Z,5.79
2023-04-08T10:24:11.882Z,5.72
2023-04-08T10:26:43.191Z,5.73
2023-04-08T10:29:46.564Z,5.72
2023-04-08T10:32:33.972Z,5.75
2023-04-08T10:35:04.469Z,5.68
2023-04-08T10:37:34.030Z,5.77
2023-04-08T10:40:03.588Z,5.79
2023-04-08T10:42:33.097Z,5.83
2023-04-08T10:45:05.665Z,5.87
2023-04-08T10:47:37.789Z,5.98
2023-04-08T10:50:15.752Z,5.91
2023-04-08T10:52:50.034Z,5.88
2023-04-08T10:55:19.697Z,5.93
2023-04-08T10:57:49.241Z,5.84
2023-04-08T11:00:22.113Z,5.84
2023-04-08T11:02:54.802Z,6.06
2023-04-08T11:05:25.448Z,6.83
2023-04-08T11:07:55.967Z,7.40
2023-04-08T11:10:25.574Z,7.22
2023-04-08T11:12:55.175Z,7.00
2023-04-08T11:15:25.248Z,6.83
2023-04-08T11:17:57.449Z,6.66
2023-04-08T11:20:28.028Z,6.64
2023-04-08T11:22:57.866Z,6.44
2023-04-08T11:25:27.454Z,6.25
2023-04-08T11:27:57.119Z,6.56
2023-04-08T11:30:27.024Z,6.80
2023-04-08T11:32:59.158Z,6.88
2023-04-08T11:35:31.725Z,6.73
2023-04-08T11:38:01.537Z,6.61
2023-04-08T11:40:31.584Z,6.47
2023-04-08T11:43:01.301Z,6.31
2023-04-08T11:45:32.041Z,6.23
2023-04-08T11:48:12.048Z,6.36
2023-04-08T11:50:41.900Z,6.61
2023-04-08T11:53:19.808Z,6.44
2023-04-08T11:55:49.751Z,6.40
2023-04-08T11:58:19.509Z,6.53
2023-04-08T12:00:51.747Z,6.29
2023-04-08T12:03:23.993Z,6.24
2023-04-08T12:05:54.867Z,6.30
2023-04-08T12:08:24.725Z,6.20
2023-04-08T12:10:54.276Z,6.39
2023-04-08T12:13:23.804Z,6.52
2023-04-08T12:15:53.381Z,6.52
2023-04-08T12:18:25.926Z,6.47
2023-04-08T12:20:56.145Z,6.73
2023-04-08T12:23:25.605Z,6.43
2023-04-08T12:25:55.107Z,6.53
2023-04-08T12:28:24.618Z,6.61
2023-04-08T12:30:54.143Z,6.26
2023-04-08T12:33:26.203Z,6.12
2023-04-08T12:35:56.225Z,6.10
2023-04-08T12:38:25.774Z,5.93
2023-04-08T12:40:55.576Z,7.21
2023-04-08T12:43:25.205Z,7.55
2023-04-08T12:45:54.812Z,7.90
2023-04-08T12:48:28.089Z,8.18
2023-04-08T12:50:58.919Z,7.91
2023-04-08T12:53:28.419Z,8.00
2023-04-08T12:55:58.199Z,8.08
2023-04-08T12:58:27.936Z,8.14
2023-04-08T13:00:57.815Z,7.89
2023-04-08T13:03:32.113Z,7.30
2023-04-08T13:06:01.928Z,6.87
2023-04-08T13:08:32.029Z,6.68
2023-04-08T13:11:01.587Z,6.31
2023-04-08T13:13:31.054Z,6.53
2023-04-08T13:16:00.683Z,6.77
2023-04-08T13:18:32.894Z,6.66
2023-04-08T13:21:02.537Z,6.76
2023-04-08T13:23:32.057Z,6.76
2023-04-08T13:26:01.782Z,6.67
2023-04-08T13:28:31.269Z,6.83
2023-04-08T13:31:00.780Z,6.68
2023-04-08T13:33:32.870Z,6.83
2023-04-08T13:36:02.408Z,6.71
2023-04-08T13:38:32.531Z,6.58
2023-04-08T13:41:02.077Z,6.65
2023-04-08T13:43:31.617Z,6.33
2023-04-08T13:46:01.269Z,6.11
2023-04-08T13:48:33.361Z,5.95
2023-04-08T13:51:02.906Z,6.24
2023-04-08T13:53:32.423Z,6.11
2023-04-08T13:56:02.151Z,6.14
2023-04-08T13:58:31.676Z,6.11
2023-04-08T14:01:01.219Z,6.12
2023-04-08T14:03:33.342Z,6.17
2023-04-08T14:06:02.857Z,5.98
2023-04-08T14:08:32.386Z,6.05
2023-04-08T14:11:01.994Z,6.13
2023-04-08T14:13:32.655Z,5.91
2023-04-08T14:16:02.478Z,6.11
2023-04-08T14:18:34.544Z,6.12
2023-04-08T14:21:04.270Z,6.11
2023-04-08T14:23:33.805Z,6.21
2023-04-08T14:26:03.414Z,6.14
2023-04-08T14:28:32.974Z,6.16
2023-04-08T14:31:04.274Z,6.74
2023-04-08T14:33:36.417Z,7.07
2023-04-08T14:36:06.325Z,6.95
2023-04-08T14:38:35.981Z,6.97
2023-04-08T14:41:05.508Z,6.68
2023-04-08T14:43:37.562Z,6.81
2023-04-08T14:46:07.262Z,7.23
2023-04-08T14:48:39.380Z,6.94
2023-04-08T14:51:09.101Z,6.99
2023-04-08T14:53:38.601Z,6.71
2023-04-08T14:56:08.912Z,6.33
2023-04-08T14:58:38.624Z,6.23
2023-04-08T15:01:08.206Z,6.81
2023-04-08T15:03:40.421Z,7.01
2023-04-08T15:06:10.011Z,7.00
2023-04-08T15:08:39.742Z,6.77
2023-04-08T15:11:09.512Z,6.82
2023-04-08T15:13:39.220Z,7.03
2023-04-08T15:16:08.991Z,6.98
2023-04-08T15:18:41.150Z,6.87
2023-04-08T15:21:10.640Z,6.93
2023-04-08T15:23:42.185Z,6.75
2023-04-08T15:26:12.088Z,6.84
2023-04-08T15:28:41.687Z,6.79
2023-04-08T15:31:11.860Z,6.72
2023-04-08T15:33:47.056Z,6.56
2023-04-08T15:36:19.757Z,6.51
2023-04-08T15:38:50.114Z,6.44
2023-04-08T15:41:21.508Z,6.41
2023-04-08T15:43:51.373Z,6.42
2023-04-08T15:46:21.433Z,6.65
2023-04-08T15:48:54.522Z,6.55
2023-04-08T15:51:24.346Z,6.39
2023-04-08T15:53:53.886Z,6.23
2023-04-08T15:56:23.634Z,6.16
2023-04-08T15:58:53.291Z,6.28
2023-04-08T16:01:23.019Z,6.35
2023-04-08T16:03:55.212Z,6.38
2023-04-08T16:06:25.055Z,6.43
2023-04-08T16:08:54.701Z,6.56
2023-04-08T16:11:26.141Z,6.53
2023-04-08T16:13:56.007Z,6.34
2023-04-08T16:16:25.768Z,6.13
2023-04-08T16:18:58.615Z,6.17
2023-04-08T16:21:28.187Z,6.15
2023-04-08T16:23:57.651Z,6.23
2023-04-08T16:26:27.397Z,6.15
2023-04-08T16:28:57.092Z,6.24
2023-04-08T16:31:26.748Z,6.18
2023-04-08T16:33:59.161Z,6.19
2023-04-08T16:36:28.709Z,6.14
2023-04-08T16:38:58.232Z,6.17
2023-04-08T16:41:27.853Z,6.14
2023-04-08T16:43:57.955Z,6.18
2023-04-08T16:46:27.436Z,6.12
2023-04-08T16:48:59.576Z,6.11
2023-04-08T16:51:29.099Z,6.26
2023-04-08T16:53:59.410Z,6.12
2023-04-08T16:56:29.487Z,6.07
2023-04-08T16:58:59.261Z,6.03
2023-04-08T17:01:28.884Z,5.95
2023-04-08T17:04:01.145Z,5.97
2023-04-08T17:06:31.388Z,6.02
2023-04-08T17:09:01.028Z,5.95
2023-04-08T17:11:30.601Z,5.95
2023-04-08T17:14:00.578Z,5.96
2023-04-08T17:16:30.079Z,5.96
2023-04-08T17:19:02.441Z,6.03
2023-04-08T17:21:32.682Z,5.96
2023-04-08T17:24:02.170Z,5.96
2023-04-08T17:26:31.702Z,5.90
2023-04-08T17:29:01.199Z,5.92
2023-04-08T17:31:31.740Z,5.92
2023-04-08T17:34:03.818Z,5.92
2023-04-08T17:36:33.291Z,5.90
2023-04-08T17:39:02.898Z,5.86
2023-04-08T17:41:39.599Z,5.88
2023-04-08T17:44:09.567Z,5.88
2023-04-08T17:46:39.335Z,5.86
2023-04-08T17:49:12.941Z,5.88
2023-04-08T17:51:42.469Z,5.84
2023-04-08T17:54:12.431Z,5.84
2023-04-08T17:56:44.467Z,5.83
2023-04-08T17:59:14.650Z,5.85
2023-04-08T18:01:44.364Z,5.80
2023-04-08T18:04:17.079Z,5.83
2023-04-08T18:06:46.639Z,5.81
2023-04-08T18:09:16.167Z,5.82
2023-04-08T18:11:45.912Z,5.86
2023-04-08T18:14:15.386Z,5.86
2023-04-08T18:16:45.026Z,5.86
2023-04-08T18:19:17.439Z,5.85
2023-04-08T18:21:47.098Z,5.84
2023-04-08T18:24:16.656Z,5.86
2023-04-08T18:26:51.724Z,5.88
2023-04-08T18:29:23.915Z,5.89
2023-04-08T18:31:53.576Z,5.84
2023-04-08T18:34:26.850Z,5.84
2023-04-08T18:36:56.396Z,5.89
2023-04-08T18:39:26.278Z,5.85
2023-04-08T18:41:56.111Z,5.83
2023-04-08T18:44:25.962Z,5.86
2023-04-08T18:46:56.523Z,5.87
2023-04-08T18:49:31.008Z,5.80
2023-04-08T18:52:03.426Z,5.87
2023-04-08T18:54:33.224Z,5.86
2023-04-08T18:57:02.947Z,5.88
2023-04-08T18:59:33.072Z,5.91
2023-04-08T19:02:02.892Z,5.86
2023-04-08T19:04:35.137Z,5.81
2023-04-08T19:07:04.709Z,5.81
2023-04-08T19:09:34.304Z,5.89
2023-04-08T19:12:04.473Z,5.88
2023-04-08T19:14:34.053Z,5.88
2023-04-08T19:17:03.838Z,5.86
2023-04-08T19:19:36.226Z,5.81
2023-04-08T19:22:06.218Z,5.80
2023-04-08T19:24:36.781Z,5.80
2023-04-08T19:27:06.671Z,5.83
2023-04-08T19:29:36.505Z,5.85
2023-04-08T19:32:06.160Z,5.90
2023-04-08T19:34:39.737Z,5.88
2023-04-08T19:37:09.420Z,5.90
2023-04-08T19:39:39.243Z,5.81
2023-04-08T19:42:09.449Z,5.84
2023-04-08T19:44:39.285Z,5.86
2023-04-08T19:47:08.758Z,5.88
2023-04-08T19:49:41.047Z,5.91
2023-04-08T19:52:11.004Z,5.92
2023-04-08T19:54:41.491Z,5.91
2023-04-08T19:57:12.428Z,5.92
2023-04-08T19:59:42.011Z,5.90
2023-04-08T20:02:11.671Z,5.88
2023-04-08T20:04:44.285Z,5.91
2023-04-08T20:07:13.912Z,5.87
2023-04-08T20:09:43.703Z,5.83
2023-04-08T20:12:13.220Z,5.79
2023-04-08T20:14:45.158Z,5.81
2023-04-08T20:17:15.600Z,5.83
2023-04-08T20:19:47.724Z,5.88
2023-04-08T20:22:17.648Z,5.85
2023-04-08T20:24:47.914Z,5.83
2023-04-08T20:27:18.875Z,5.81
2023-04-08T20:29:48.456Z,5.81
2023-04-08T20:32:17.920Z,5.83
2023-04-08T20:34:50.214Z,5.85
2023-04-08T20:37:19.837Z,5.81
2023-04-08T20:39:49.316Z,5.85
2023-04-08T20:42:18.780Z,5.80
2023-04-08T20:44:48.490Z,5.78
2023-04-08T20:47:17.961Z,5.75
2023-04-08T20:49:50.027Z,5.77
2023-04-08T20:52:19.498Z,5.80
2023-04-08T20:54:49.010Z,5.83
2023-04-08T20:57:18.513Z,5.87
2023-04-08T20:59:48.091Z,5.85
2023-04-08T21:02:18.205Z,5.87
2023-04-08T21:04:50.536Z,5.87
2023-04-08T21:07:20.049Z,5.88
2023-04-08T21:09:50.215Z,5.79
2023-04-08T21:12:19.939Z,5.83
2023-04-08T21:14:50.950Z,5.81
2023-04-08T21:17:20.776Z,5.82
2023-04-08T21:19:52.895Z,5.90
2023-04-08T21:22:22.396Z,5.86
2023-04-08T21:24:52.272Z,5.78
2023-04-08T21:27:21.952Z,5.78
2023-04-08T21:29:53.720Z,5.69
2023-04-08T21:32:23.861Z,5.72
2023-04-08T21:34:57.893Z,5.73
2023-04-08T21:37:27.582Z,5.72
2023-04-08T21:39:57.624Z,5.72
2023-04-08T21:42:27.808Z,5.67
2023-04-08T21:44:57.720Z,5.73
2023-04-08T21:47:27.283Z,5.67
2023-04-08T21:49:59.592Z,5.73
2023-04-08T21:52:29.327Z,5.67
2023-04-08T21:54:58.944Z,5.71
2023-04-08T21:57:28.606Z,5.74
2023-04-08T21:59:58.397Z,5.75
2023-04-08T22:02:28.037Z,5.72
2023-04-08T22:05:00.339Z,5.73
2023-04-08T22:07:29.897Z,5.73
2023-04-08T22:10:01.352Z,5.79
2023-04-08T22:12:31.376Z,5.79
2023-04-08T22:15:00.955Z,5.74
2023-04-08T22:17:30.826Z,5.71
2023-04-08T22:20:03.283Z,5.74
2023-04-08T22:22:32.826Z,5.74
2023-04-08T22:25:02.370Z,5.76
2023-04-08T22:27:31.892Z,5.77
2023-04-08T22:30:01.394Z,5.72
2023-04-08T22:32:30.981Z,5.74
2023-04-08T22:35:03.138Z,5.77
2023-04-08T22:37:33.319Z,5.80
2023-04-08T22:40:03.939Z,5.71
2023-04-08T22:42:33.438Z,5.75
2023-04-08T22:45:02.963Z,5.71
2023-04-08T22:47:32.517Z,5.71
2023-04-08T22:50:04.611Z,5.75
2023-04-08T22:52:34.154Z,5.76
2023-04-08T22:55:03.686Z,5.87
2023-04-08T22:57:33.270Z,5.84
2023-04-08T23:00:04.226Z,5.83
2023-04-08T23:02:34.112Z,5.87
2023-04-08T23:05:06.361Z,5.94
2023-04-08T23:07:35.973Z,5.93
2023-04-08T23:10:05.622Z,5.93
2023-04-08T23:12:35.305Z,5.90
2023-04-08T23:15:04.796Z,5.89
2023-04-08T23:17:34.320Z,5.92
2023-04-08T23:20:07.130Z,5.84
2023-04-08T23:22:36.670Z,5.76
2023-04-08T23:25:06.615Z,5.70
2023-04-08T23:27:36.376Z,5.66
2023-04-08T23:30:06.673Z,5.67
2023-04-08T23:32:36.589Z,5.75
2023-04-08T23:35:09.129Z,5.74
2023-04-08T23:37:38.637Z,5.80
2023-04-08T23:40:10.174Z,5.81
2023-04-08T23:42:39.694Z,5.77
2023-04-08T23:45:10.256Z,5.76
2023-04-08T23:47:39.811Z,5.75
2023-04-08T23:50:12.958Z,5.73
2023-04-08T23:52:42.515Z,5.76
2023-04-08T23:55:12.881Z,5.77
2023-04-08T23:57:44.613Z,5.76
